Flight Track Log - Related Links

Times and Time Zones

All times are in EDT time to prevent confusion due to time zone crossing. See the N800AB flight status page for this flight to view local times or setup timezone preferences in your user account.

Time Position Orientation Groundspeed Altitude Reporting Facility
EDT Latitude Longitude Course Direction KTS MPH feet Rate Location/Type
Sat 11:12:20 AM 39.5000 -104.9333 255° West 283 326 9,900  Level Denver TRACON
Sat 11:13:06 AM 39.5314 -104.9869 307° West 291 335 11,400 1,778 Climbing Denver Center
Sat 11:14:08 AM 39.5908 -105.0781 310° West 308 354 13,100 2,177 Climbing Denver Center
Sat 11:15:10 AM 39.6492 -105.1689 310° West 324 373 15,900 2,274 Climbing Denver Center
Sat 11:16:00 AM 39.5500 -105.5545 270° West  Level FlightAware Approximate
Sat 11:16:12 AM 39.6653 -105.3014 279° West 386 444 17,800  Level Denver Center
Sat 11:17:00 AM 39.5227 -105.6866 255° West  Level FlightAware Approximate
Sat 11:17:27 AM 39.6039 -105.4814 246° West 418 481 20,800  Level Denver Center
Sat 11:18:29 AM 39.5511 -105.6219 244° Southwest 437 503 23,200 2,226 Climbing Denver Center
Sat 11:19:31 AM 39.5086 -105.7728 250° West 434 499 25,400 1,839 Climbing Denver Center
Sat 11:20:33 AM 39.4692 -105.9217 251° West 438 504 27,000 1,500 Climbing Denver Center
Sat 11:21:35 AM 39.4267 -106.0761 250° West 455 524 28,500 1,500 Climbing Denver Center
Sat 11:22:49 AM 39.3719 -106.2656 250° West 461 531 30,400 1,632 Climbing Denver Center
Sat 11:23:51 AM 39.3233 -106.4375 250° West 457 526 32,200 1,597 Climbing Denver Center
Sat 11:24:53 AM 39.2808 -106.5828 249° West 452 520 33,700 1,536 Climbing Denver Center
Sat 11:25:56 AM 39.2247 -106.7428 246° West 441 507 35,400 1,344 Climbing Denver Center
Sat 11:26:58 AM 39.1625 -106.8667 237° Southwest 430 495 36,500 1,016 Climbing Denver Center
Sat 11:28:00 AM 39.0867 -107.0128 236° Southwest 437 503 37,500 726 Climbing Denver Center
Sat 11:29:02 AM 39.0214 -107.1389 236° Southwest 438 504 38,000 629 Climbing Denver Center
Sat 11:30:04 AM 38.9442 -107.2872 236° Southwest 445 512 38,800 919 Climbing Denver Center
Sat 11:31:06 AM 38.8783 -107.4117 236° Southwest 439 505 39,900 1,065 Climbing Denver Center
Sat 11:32:08 AM 38.8061 -107.5525 237° Southwest 427 491 41,000 774 Climbing Denver Center
Sat 11:33:10 AM 38.7411 -107.6739 236° Southwest 429 494 41,500 435 Climbing Denver Center
Sat 11:34:12 AM 38.6772 -107.7953 236° Southwest 428 493 41,900 484 Climbing Denver Center
Sat 11:35:14 AM 38.6022 -107.9372 236° Southwest 430 495 42,500 484 Climbing Denver Center
Sat 11:36:16 AM 38.5383 -108.0586 236° Southwest 429 494 42,900 242 Climbing Denver Center
Sat 11:37:18 AM 38.4614 -108.2008 235° Southwest 434 499 43,000 48 Climbing Denver Center
Sat 11:38:20 AM 38.3950 -108.3250 236° Southwest 441 507 43,000  Level Denver Center
Sat 11:39:22 AM 38.3164 -108.4722 236° Southwest 446 513 43,000  Level Denver Center
Sat 11:40:24 AM 38.2483 -108.5972 235° Southwest 448 516 43,000  Level Denver Center
Sat 11:41:26 AM 38.1689 -108.7453 236° Southwest 452 520 43,000  Level Denver Center
Sat 11:42:28 AM 38.1003 -108.8733 236° Southwest 455 524 43,000  Level Denver Center
Sat 11:43:31 AM 38.0308 -108.9956 234° Southwest 445 512 43,000  Level Denver Center
Sat 11:44:33 AM 37.9519 -109.1411 236° Southwest 447 514 43,000  Level Denver Center
Sat 11:45:35 AM 37.8828 -109.2639 235° Southwest 448 516 43,000  Level Denver Center
Sat 11:46:37 AM 37.8042 -109.4075 235° Southwest 445 512 43,000  Level Denver Center
Sat 11:47:39 AM 37.7353 -109.5303 235° Southwest 446 513 43,000  Level Denver Center
Sat 11:48:41 AM 37.6558 -109.6725 235° Southwest 445 512 43,000  Level Denver Center
Sat 11:49:43 AM 37.5878 -109.7944 235° Southwest 445 512 43,000  Level Denver Center
Sat 11:50:45 AM 37.5069 -109.9372 235° Southwest 447 514 43,000  Level Denver Center
Sat 11:51:47 AM 37.4383 -110.0589 235° Southwest 445 512 43,000  Level Denver Center
Sat 11:52:49 AM 37.3614 -110.1942 234° Southwest 446 513 43,000  Level Denver Center
Sat 11:53:51 AM 37.2897 -110.3192 234° Southwest 442 509 43,000  Level Denver Center
Sat 11:54:53 AM 37.2169 -110.4467 234° Southwest 447 514 43,000  Level Denver Center
Sat 11:55:55 AM 37.1450 -110.5717 234° Southwest 443 510 43,000  Level Denver Center
Sat 11:56:57 AM 37.0583 -110.7225 234° Southwest 445 512 43,000  Level Denver Center
Sat 11:57:59 AM 36.9856 -110.8489 234° Southwest 446 513 43,000  Level Denver Center
Sat 11:59:01 AM 36.9122 -110.9728 234° Southwest 443 510 43,000  Level Denver Center
Sat 12:00:03 PM 36.8392 -111.0972 234° Southwest 443 510 43,000  Level Denver Center
Sat 12:01:06 PM 36.7672 -111.2217 234° Southwest 442 509 43,000  Level Denver Center
Sat 12:02:08 PM 36.6942 -111.3458 234° Southwest 443 510 43,000  Level Denver Center
Sat 12:03:10 PM 36.6047 -111.4956 233° Southwest 446 513 43,000  Level Denver Center
Sat 12:04:12 PM 36.5319 -111.6197 234° Southwest 446 513 43,000  Level Denver Center
Sat 12:04:46 PM 36.5014 -111.6692 232° Southwest 444 511 43,000  Level Los Angeles Center
Sat 12:05:47 PM 36.4131 -111.8178 234° Southwest 445 512 43,000  Level Los Angeles Center
Sat 12:06:49 PM 36.3397 -111.9406 233° Southwest 442 509 43,000  Level Los Angeles Center
Sat 12:07:51 PM 36.2658 -112.0642 233° Southwest 444 511 43,000  Level Los Angeles Center
Sat 12:08:53 PM 36.1989 -112.1764 234° Southwest 446 513 43,000  Level Los Angeles Center
Sat 12:09:55 PM 36.1169 -112.3106 233° Southwest 447 514 43,000  Level Los Angeles Center
Sat 12:10:57 PM 36.0444 -112.4306 233° Southwest 439 505 43,000  Level Los Angeles Center
Sat 12:11:59 PM 35.9544 -112.5794 233° Southwest 447 514 43,000  Level Los Angeles Center
Sat 12:13:02 PM 35.8900 -112.6839 233° Southwest 442 509 43,000  Level Los Angeles Center
Sat 12:14:04 PM 35.8031 -112.8258 233° Southwest 439 505 43,000  Level Los Angeles Center
Sat 12:15:06 PM 35.7306 -112.9439 233° Southwest 437 503 43,000  Level Los Angeles Center
Sat 12:16:08 PM 35.6508 -113.0719 233° Southwest 439 505 43,000  Level Los Angeles Center
Sat 12:17:10 PM 35.5761 -113.1931 233° Southwest 443 510 43,000  Level Los Angeles Center
Sat 12:18:12 PM 35.5117 -113.2969 233° Southwest 440 506 43,000  Level Los Angeles Center
Sat 12:19:14 PM 35.4219 -113.4403 232° Southwest 446 513 43,000  Level Los Angeles Center
Sat 12:20:16 PM 35.3478 -113.5586 232° Southwest 443 510 43,000  Level Los Angeles Center
Sat 12:21:18 PM 35.2722 -113.6769 232° Southwest 444 511 43,000  Level Los Angeles Center
Sat 12:22:20 PM 35.1981 -113.7961 233° Southwest 444 511 43,000  Level Los Angeles Center
Sat 12:23:22 PM 35.1111 -113.9400 234° Southwest 443 510 43,000 -290 Level Los Angeles Center
Sat 12:24:24 PM 35.0336 -114.0542 230° Southwest 439 505 42,400 -1,016 Descending Los Angeles Center
Sat 12:25:26 PM 34.9564 -114.1758 232° Southwest 447 514 40,900 -1,968 Descending Los Angeles Center
Sat 12:26:29 PM 34.8806 -114.2939 232° Southwest 445 512 38,300 -2,544 Descending Los Angeles Center
Sat 12:27:31 PM 34.8053 -114.4125 232° Southwest 443 510 35,600 -2,661 Descending Los Angeles Center
Sat 12:28:33 PM 34.7247 -114.5233 229° Southwest 437 503 32,800 -2,661 Descending Los Angeles Center
Sat 12:29:35 PM 34.6244 -114.6344 222° Southwest 435 501 30,100 -1,355 Descending Los Angeles Center
Sat 12:30:37 PM 34.5331 -114.7381 223° Southwest 446 513 30,000 -339 Descending Los Angeles Center
Sat 12:31:39 PM 34.4397 -114.8453 223° Southwest 459 528 29,400 -871 Descending Los Angeles Center
Sat 12:32:41 PM 34.3222 -114.9786 223° Southwest 479 551 28,200 -677 Descending Los Angeles Center
Sat 12:33:43 PM 34.2247 -115.0889 223° Southwest 480 552 28,000 -97 Descending Los Angeles Center
Sat 12:34:45 PM 34.1269 -115.1989 223° Southwest 481 554 28,000  Level Los Angeles Center
Sat 12:35:47 PM 34.0297 -115.3061 222° Southwest 477 549 28,000 -48 Level Los Angeles Center
Sat 12:36:49 PM 33.9333 -115.4150 223° Southwest 477 549 27,900 -581 Descending Los Angeles Center
Sat 12:37:51 PM 33.8358 -115.5231 223° Southwest 476 548 26,800 -1,161 Descending Los Angeles Center
Sat 12:38:53 PM 33.7197 -115.6536 223° Southwest 477 549 25,500 -1,161 Descending Los Angeles Center
Sat 12:39:55 PM 33.6222 -115.7597 222° Southwest 474 545 24,400 -726 Descending Los Angeles Center
Sat 12:40:57 PM 33.5483 -115.8900 236° Southwest 470 541 24,000 -290 Descending Los Angeles Center
Sat 12:41:59 PM 33.4656 -116.0117 231° Southwest 474 545 23,800 -1,403 Descending Los Angeles Center
Sat 12:43:01 PM 33.3664 -116.1044 218° Southwest 456 525 21,100 -2,688 Descending Los Angeles Center
Sat 12:44:04 PM 33.2692 -116.1964 218° Southwest 449 517 18,200 -3,120 Descending Los Angeles Center
Sat 12:45:06 PM 33.1583 -116.3014 218° Southwest 431 496 14,600 -2,903 Descending Los Angeles Center
Sat 12:46:08 PM 33.0828 -116.3714 218° Southwest 348 400 12,200 -1,258 Descending Los Angeles Center
Sat 12:47:10 PM 33.0214 -116.4286 218° Southwest 317 365 12,000 -581 Descending Los Angeles Center
Sat 12:48:12 PM 32.9347 -116.4858 209° Southwest 300 345 11,000 -1,113 Descending Los Angeles Center
Sat 12:49:14 PM 32.8594 -116.5283 205° Southwest 291 335 9,700 -1,210 Descending Los Angeles Center
Sat 12:50:16 PM 32.8114 -116.5997 231° Southwest 285 328 8,500 -1,210 Descending Los Angeles Center
Sat 12:51:18 PM 32.7747 -116.6767 240° Southwest 274 315 7,200 -1,065 Descending Los Angeles Center
Sat 12:52:20 PM 32.7369 -116.7247 227° Southwest 220 253 6,300 -629 Descending Los Angeles Center
Sat 12:53:22 PM 32.7003 -116.7625 221° Southwest 199 229 5,900 -194 Descending Los Angeles Center
Sat 12:54:24 PM 32.6811 -116.8322 252° West 186 214 5,900 106 Level Los Angeles Center
Sat 12:55:15 PM 32.6667 -116.8833 251° West 187 215 6,100 -214 Climbing Southern California TRACON
Sat 12:56:16 PM 32.6667 -116.9500 270° West 184 212 5,500 -1,100 Descending Southern California TRACON
Sat 12:57:15 PM 32.6833 -117.0000 292° West 177 204 3,900 -1,421 Descending Southern California TRACON
Sat 12:58:10 PM 32.7000 -117.0500 292° West 173 199 2,800 -1,140 Descending Southern California TRACON
Sat 12:59:16 PM 32.7167 -117.1000 292° West 150 173 1,600 -1,000 Descending Southern California TRACON
Sat 01:00:16 PM 32.7167 -117.1500 270° West 136 157 700 11,916 Descending Southern California TRACON
Sat 01:01:39 PM 32.7178 -117.2592 271° West 216 249 30,000 21,181 Climbing Los Angeles Center
Sat 01:03:00 PM 32.7336 -117.1897 75° East  Level Estimated

Login

Don't have an account? Register now (free) for customized features, flight alerts, and more!